Schaerbeek, Belgium
Current Conditions -  °F | °C
As of 6:20 PM on Sunday 23 Nov 2014 (Local Time) from EBBR Reporting Station
Clear Clear  
Wind Chill: 54°   Ceiling: Unl
Heat Index: 54°   Visibility: 6mi
Dew Point: 48°   Wind: 6mph
Humidity: 82%   Direction: 170°S
Pressure: 29.94"   Gusts: NA
Location:  50.86°N, 4.39°E
Report Text: EBBR 231720Z 17005KT CAVOK 12/09 Q1014 NOSIG
Loading
Personal Weather Stations






























Interactive Weather Map New forecast layout! Learn more

10-Day Weather Forecast

Advertisements
Track Severe Weather on mobile